Time;durP1;ratioP1;P1;durP2;ratioP2;P2;SDS_P1;SDS_P2;PMS_P1;PMS_P2;Temp;Humidity;BMP_temperature;BMP_pressure;BME280_temperature;BME280_humidity;BME280_pressure;Samples;Min_cycle;Max_cycle;Signal;HPM_P1;HPM_P2
2023/03/10 00:01:26;;;;;;;29.80;12.70;;;0.40;99.90;;;;;;5044978;28;20044;-65
2023/03/10 00:03:53;;;;;;;31.77;13.02;;;0.40;99.90;;;;;;5039376;28;20094;-64
2023/03/10 00:06:21;;;;;;;30.63;13.07;;;0.40;99.90;;;;;;5030954;28;20114;-65
2023/03/10 00:08:47;;;;;;;32.22;13.75;;;0.40;99.90;;;;;;5043776;28;20049;-65
2023/03/10 00:11:13;;;;;;;34.40;13.23;;;0.40;99.90;;;;;;5037743;28;20041;-64
2023/03/10 00:13:39;;;;;;;31.95;13.57;;;0.40;99.90;;;;;;5029365;28;20038;-65
2023/03/10 00:16:05;;;;;;;31.58;13.45;;;0.40;99.90;;;;;;5038008;28;20040;-65
2023/03/10 00:18:31;;;;;;;35.13;13.32;;;0.50;99.90;;;;;;5032195;28;20055;-64
2023/03/10 00:20:57;;;;;;;29.98;13.85;;;0.50;99.90;;;;;;5028684;28;20049;-64
2023/03/10 00:23:23;;;;;;;33.05;14.20;;;0.40;99.90;;;;;;5050059;28;20086;-64
2023/03/10 00:25:57;;;;;;;32.28;14.40;;;0.50;99.90;;;;;;5036152;28;20040;-64
2023/03/10 00:28:24;;;;;;;30.70;12.52;;;0.50;99.90;;;;;;5031849;28;20056;-64
2023/03/10 00:31:05;;;;;;;32.40;14.55;;;0.40;99.90;;;;;;5045078;28;20047;-64
2023/03/10 00:33:32;;;;;;;32.80;14.30;;;0.50;99.90;;;;;;5039633;28;20056;-63
2023/03/10 00:36:14;;;;;;;27.10;12.43;;;0.40;99.90;;;;;;5040324;28;20037;-64
2023/03/10 00:38:41;;;;;;;28.60;12.52;;;0.50;99.90;;;;;;5038776;28;20049;-64
2023/03/10 00:41:12;;;;;;;30.73;12.68;;;0.50;99.90;;;;;;5035742;28;20481;-63
2023/03/10 00:43:37;;;;;;;31.80;12.25;;;0.40;99.90;;;;;;5037304;28;20101;-64
2023/03/10 00:46:04;;;;;;;27.60;11.95;;;0.40;99.90;;;;;;5038021;28;20044;-64
2023/03/10 00:48:29;;;;;;;36.20;13.88;;;0.40;99.90;;;;;;5042885;28;20040;-63
2023/03/10 00:50:55;;;;;;;31.83;12.75;;;0.40;99.90;;;;;;5040289;28;20041;-63
2023/03/10 00:53:21;;;;;;;29.90;11.38;;;0.40;99.90;;;;;;5030715;28;20041;-63
2023/03/10 00:56:09;;;;;;;29.33;12.50;;;0.40;99.90;;;;;;5031902;28;20389;-64
2023/03/10 00:58:35;;;;;;;32.63;11.02;;;0.40;99.90;;;;;;5029517;28;20040;-62
2023/03/10 01:01:02;;;;;;;27.48;12.90;;;0.40;99.90;;;;;;5045863;28;20040;-64
2023/03/10 01:03:28;;;;;;;29.45;12.80;;;0.40;99.90;;;;;;5041498;28;20064;-62
2023/03/10 01:05:55;;;;;;;28.75;11.77;;;0.40;99.90;;;;;;5037979;28;20055;-65
2023/03/10 01:08:21;;;;;;;25.85;11.43;;;0.40;99.90;;;;;;5033319;28;20045;-64
2023/03/10 01:10:47;;;;;;;29.90;12.40;;;0.40;99.90;;;;;;5034534;28;20112;-64
2023/03/10 01:13:14;;;;;;;29.95;12.43;;;0.40;99.90;;;;;;5034544;28;20170;-64
2023/03/10 01:15:40;;;;;;;25.85;12.40;;;0.40;99.90;;;;;;5041055;28;20045;-65
2023/03/10 01:18:06;;;;;;;30.40;12.63;;;0.40;99.90;;;;;;5034770;28;20035;-64
2023/03/10 01:20:33;;;;;;;26.25;10.77;;;0.40;99.90;;;;;;5040173;28;20076;-65
2023/03/10 01:22:59;;;;;;;35.10;13.27;;;0.40;99.90;;;;;;5045565;28;20038;-63
2023/03/10 01:25:26;;;;;;;28.23;11.93;;;0.50;99.90;;;;;;5038642;28;20078;-64
2023/03/10 01:27:52;;;;;;;26.95;11.43;;;0.50;99.90;;;;;;5041561;28;20051;-65
2023/03/10 01:30:17;;;;;;;28.00;11.32;;;0.50;99.90;;;;;;5038505;28;20044;-63
2023/03/10 01:32:43;;;;;;;29.83;11.82;;;0.50;99.90;;;;;;5049097;28;20063;-64
2023/03/10 01:35:09;;;;;;;29.73;11.70;;;0.50;99.90;;;;;;5030633;28;20030;-64
2023/03/10 01:37:35;;;;;;;28.48;11.73;;;0.50;99.90;;;;;;5030611;28;20047;-64
2023/03/10 01:40:03;;;;;;;33.65;14.07;;;0.40;99.90;;;;;;5044084;28;20037;-64
2023/03/10 01:42:30;;;;;;;28.25;11.02;;;0.40;99.90;;;;;;5050564;28;20393;-66
2023/03/10 01:45:13;;;;;;;31.88;12.18;;;0.50;99.90;;;;;;5048081;28;20459;-65
2023/03/10 01:47:40;;;;;;;29.50;12.95;;;0.50;99.90;;;;;;5049019;28;20075;-65
2023/03/10 01:50:12;;;;;;;31.35;12.90;;;0.40;99.90;;;;;;5034531;28;20396;-66
2023/03/10 01:52:39;;;;;;;33.35;13.57;;;0.50;99.90;;;;;;5053807;28;20049;-65
2023/03/10 01:55:16;;;;;;;33.22;14.48;;;0.50;99.90;;;;;;5041846;28;20051;-65
2023/03/10 01:57:49;;;;;;;31.48;12.90;;;0.40;99.90;;;;;;5048805;28;20037;-65
2023/03/10 02:00:16;;;;;;;32.38;13.73;;;0.40;99.90;;;;;;5040780;28;20045;-66
2023/03/10 02:03:19;;;;;;;31.52;13.23;;;0.50;99.90;;;;;;5035268;28;20132;-66
2023/03/10 02:05:57;;;;;;;35.38;14.93;;;0.50;99.90;;;;;;5037847;28;20056;-65
2023/03/10 02:08:24;;;;;;;30.85;13.00;;;0.40;99.90;;;;;;5045207;28;20060;-65
2023/03/10 02:10:50;;;;;;;35.33;13.85;;;0.50;99.90;;;;;;5029636;28;20041;-65
2023/03/10 02:13:16;;;;;;;33.70;14.25;;;0.50;99.90;;;;;;5031870;28;20037;-65
2023/03/10 02:15:42;;;;;;;38.10;15.30;;;0.50;99.90;;;;;;5034893;28;20041;-64
2023/03/10 02:18:11;;;;;;;38.22;14.93;;;0.50;99.90;;;;;;5036048;28;20124;-66
2023/03/10 02:21:08;;;;;;;39.90;16.50;;;0.50;99.90;;;;;;5042562;28;20041;-65
2023/03/10 02:23:55;;;;;;;35.33;14.77;;;0.50;99.90;;;;;;5031153;28;20052;-64
2023/03/10 02:26:45;;;;;;;37.38;15.77;;;0.50;99.90;;;;;;5044597;28;20051;-64
2023/03/10 02:29:24;;;;;;;40.55;16.98;;;0.50;99.90;;;;;;5039251;28;20098;-66
2023/03/10 02:31:51;;;;;;;40.05;16.40;;;0.50;99.90;;;;;;5043363;28;20095;-64
2023/03/10 02:34:17;;;;;;;44.10;16.13;;;0.50;99.90;;;;;;5042297;28;20037;-65
2023/03/10 02:36:42;;;;;;;46.95;18.63;;;0.50;99.90;;;;;;5036660;28;20121;-65
2023/03/10 02:39:08;;;;;;;43.85;17.63;;;0.50;99.90;;;;;;5031235;28;20042;-65
2023/03/10 02:41:38;;;;;;;51.55;18.00;;;0.50;99.90;;;;;;5037405;28;20080;-65
2023/03/10 02:44:06;;;;;;;;;;;0.50;99.90;;;;;;5037927;28;20045;-65
2023/03/10 02:46:32;;;;;;;47.83;17.48;;;0.50;99.90;;;;;;5043569;28;19917;-65
2023/03/10 02:48:59;;;;;;;45.08;17.25;;;0.50;99.90;;;;;;5050607;28;20033;-65
2023/03/10 02:51:31;;;;;;;44.10;18.65;;;0.50;99.90;;;;;;5048137;28;20129;-66
2023/03/10 02:53:57;;;;;;;47.00;17.63;;;0.50;99.90;;;;;;5041374;28;20037;-65
2023/03/10 02:56:22;;;;;;;42.25;16.88;;;0.50;99.90;;;;;;5046358;28;20055;-65
2023/03/10 02:58:48;;;;;;;37.90;15.57;;;0.50;99.90;;;;;;5041688;28;20049;-66
2023/03/10 03:01:14;;;;;;;45.97;16.48;;;0.50;99.90;;;;;;5047846;28;20044;-64
2023/03/10 03:03:40;;;;;;;47.10;16.50;;;0.50;99.90;;;;;;5037936;28;20046;-65
2023/03/10 03:06:05;;;;;;;43.38;16.75;;;0.50;99.90;;;;;;5039682;28;20041;-65
2023/03/10 03:08:32;;;;;;;35.08;15.05;;;0.50;99.90;;;;;;5030444;28;20417;-64
2023/03/10 03:10:58;;;;;;;41.20;15.65;;;0.40;99.90;;;;;;5047724;28;20056;-65
2023/03/10 03:13:24;;;;;;;40.40;15.57;;;0.50;99.90;;;;;;5040857;28;20473;-65
2023/03/10 03:15:50;;;;;;;39.90;15.50;;;0.50;99.90;;;;;;5045090;28;20067;-65
2023/03/10 03:18:16;;;;;;;35.83;13.48;;;0.50;99.90;;;;;;5045218;28;20094;-65
2023/03/10 03:20:42;;;;;;;36.25;13.40;;;0.50;99.90;;;;;;5050393;28;20478;-65
2023/03/10 03:23:08;;;;;;;37.90;14.98;;;0.50;99.90;;;;;;5036081;28;20040;-65
2023/03/10 03:25:37;;;;;;;32.33;13.40;;;0.40;99.90;;;;;;5045388;28;20076;-66
2023/03/10 03:28:04;;;;;;;37.17;14.32;;;0.40;99.90;;;;;;5031348;28;20123;-65
2023/03/10 03:30:30;;;;;;;34.92;13.70;;;0.40;99.90;;;;;;5044580;28;20036;-65
2023/03/10 03:32:55;;;;;;;34.58;13.57;;;0.40;99.90;;;;;;5039630;28;20040;-65
2023/03/10 03:35:24;;;;;;;28.48;12.32;;;0.50;99.90;;;;;;5051505;28;20065;-65
2023/03/10 03:37:51;;;;;;;29.75;12.30;;;0.50;99.90;;;;;;5048564;28;20079;-65
2023/03/10 03:40:17;;;;;;;40.35;13.18;;;0.40;99.90;;;;;;5033301;28;20037;-65
2023/03/10 03:42:44;;;;;;;32.42;12.88;;;0.40;99.90;;;;;;5043311;28;20090;-65
2023/03/10 03:45:12;;;;;;;34.80;12.80;;;0.40;99.90;;;;;;5046976;28;20040;-65
2023/03/10 03:47:38;;;;;;;31.38;13.05;;;0.40;99.90;;;;;;5049087;28;20041;-66
2023/03/10 03:50:05;;;;;;;43.53;14.60;;;0.40;99.90;;;;;;5037872;28;20045;-65
2023/03/10 03:52:31;;;;;;;29.65;13.23;;;0.40;99.90;;;;;;5031167;28;20087;-66
2023/03/10 03:54:57;;;;;;;30.73;11.82;;;0.40;99.90;;;;;;5033880;28;20041;-65
2023/03/10 03:57:22;;;;;;;39.97;13.25;;;0.40;99.90;;;;;;5039184;28;20039;-66
2023/03/10 03:59:48;;;;;;;29.58;12.10;;;0.40;99.90;;;;;;5040120;28;20381;-66
2023/03/10 04:02:14;;;;;;;27.88;12.55;;;0.40;99.90;;;;;;5032310;28;20114;-66
2023/03/10 04:04:40;;;;;;;33.60;11.70;;;0.40;99.90;;;;;;5038381;28;20479;-66
2023/03/10 04:07:06;;;;;;;33.20;11.45;;;0.40;99.90;;;;;;5046085;28;20028;-66
2023/03/10 04:09:32;;;;;;;29.83;11.23;;;0.40;99.90;;;;;;5045436;28;20067;-66
2023/03/10 04:11:57;;;;;;;30.88;11.80;;;0.40;99.90;;;;;;5042904;28;20795;-66
2023/03/10 04:14:23;;;;;;;35.83;12.75;;;0.30;99.90;;;;;;5031208;28;20256;-66
2023/03/10 04:16:48;;;;;;;29.55;10.85;;;0.40;99.90;;;;;;5038699;28;20037;-67
2023/03/10 04:19:14;;;;;;;29.52;11.35;;;0.40;99.90;;;;;;5047184;28;20588;-66
2023/03/10 04:21:40;;;;;;;28.33;11.90;;;0.40;99.90;;;;;;5014431;28;20090;-67
2023/03/10 04:24:06;;;;;;;28.20;11.15;;;0.40;99.90;;;;;;5029871;28;20037;-67
2023/03/10 04:26:31;;;;;;;29.80;11.20;;;0.40;99.90;;;;;;5039229;28;20158;-67
2023/03/10 04:28:58;;;;;;;25.35;10.95;;;0.40;99.90;;;;;;5046029;28;20128;-66
2023/03/10 04:31:24;;;;;;;29.40;11.65;;;0.40;99.90;;;;;;5030422;28;20037;-67
2023/03/10 04:33:50;;;;;;;32.05;12.35;;;0.40;99.90;;;;;;5050082;28;20452;-67
2023/03/10 04:36:17;;;;;;;29.10;11.05;;;0.40;99.90;;;;;;5036666;28;20041;-67
2023/03/10 04:38:43;;;;;;;31.75;11.57;;;0.30;99.90;;;;;;5046186;28;20115;-67
2023/03/10 04:41:09;;;;;;;35.78;11.25;;;0.40;99.90;;;;;;5045672;28;20064;-67
2023/03/10 04:43:35;;;;;;;26.10;11.05;;;0.40;99.90;;;;;;5047860;28;20036;-68
2023/03/10 04:46:00;;;;;;;25.15;10.60;;;0.40;99.90;;;;;;5040244;28;20128;-67
2023/03/10 04:48:26;;;;;;;32.88;12.30;;;0.30;99.90;;;;;;5044590;28;20174;-66
2023/03/10 04:51:04;;;;;;;32.40;12.05;;;0.30;99.90;;;;;;5038034;28;20041;-67
2023/03/10 04:53:31;;;;;;;28.50;11.52;;;0.30;99.90;;;;;;5046120;28;20078;-66
2023/03/10 04:55:57;;;;;;;32.85;12.02;;;0.40;99.90;;;;;;5044961;28;20120;-66
2023/03/10 04:58:23;;;;;;;32.08;11.98;;;0.30;99.90;;;;;;5045760;28;20107;-66
2023/03/10 05:00:49;;;;;;;30.33;11.45;;;0.40;99.90;;;;;;5045279;28;20595;-66
2023/03/10 05:03:15;;;;;;;34.25;13.13;;;0.30;99.90;;;;;;5045485;28;20032;-66
2023/03/10 05:05:41;;;;;;;35.25;12.55;;;0.40;99.90;;;;;;5043024;28;20048;-66
2023/03/10 05:08:07;;;;;;;32.50;12.15;;;0.40;99.90;;;;;;5034706;28;20033;-66
2023/03/10 05:10:33;;;;;;;37.65;14.32;;;0.30;99.90;;;;;;5027299;28;20099;-66
2023/03/10 05:12:59;;;;;;;37.72;13.68;;;0.30;99.90;;;;;;5031866;28;20130;-67
2023/03/10 05:15:25;;;;;;;30.65;12.25;;;0.40;99.90;;;;;;5034630;28;20083;-67
2023/03/10 05:17:50;;;;;;;33.20;12.57;;;0.30;99.90;;;;;;5038639;28;20049;-68
2023/03/10 05:20:16;;;;;;;38.08;14.05;;;0.30;99.90;;;;;;5037759;28;20030;-67
2023/03/10 05:22:42;;;;;;;35.30;14.27;;;0.30;99.90;;;;;;5035565;28;20037;-67
2023/03/10 05:25:10;;;;;;;41.53;14.00;;;0.30;99.90;;;;;;5034339;28;20052;-67
2023/03/10 05:27:37;;;;;;;33.00;12.35;;;0.30;99.90;;;;;;5035340;28;20064;-67
2023/03/10 05:30:09;;;;;;;36.35;14.18;;;0.30;99.90;;;;;;5032295;28;20037;-67
2023/03/10 05:32:35;;;;;;;44.20;14.73;;;0.30;99.90;;;;;;5037036;28;20045;-67
2023/03/10 05:35:02;;;;;;;39.67;14.05;;;0.30;99.90;;;;;;5034076;28;20037;-65
2023/03/10 05:37:28;;;;;;;43.30;14.80;;;0.30;99.90;;;;;;5037146;28;20029;-66
2023/03/10 05:39:54;;;;;;;47.08;15.65;;;0.30;99.90;;;;;;5036952;28;22425;-66
2023/03/10 05:42:20;;;;;;;60.35;18.35;;;0.30;99.90;;;;;;5038279;28;20485;-66
2023/03/10 05:44:45;;;;;;;47.42;16.90;;;0.30;99.90;;;;;;5025072;28;20048;-65
2023/03/10 05:47:12;;;;;;;57.72;17.85;;;0.30;99.90;;;;;;5037568;28;20064;-66
2023/03/10 05:49:38;;;;;;;52.90;19.58;;;0.30;99.90;;;;;;5035943;28;20049;-65
2023/03/10 05:52:04;;;;;;;48.03;18.55;;;0.30;99.90;;;;;;5029737;28;20033;-68
2023/03/10 05:54:30;;;;;;;61.50;19.30;;;0.20;99.90;;;;;;5040235;28;20037;-65
2023/03/10 05:56:56;;;;;;;57.17;19.10;;;0.30;99.90;;;;;;5035285;28;20057;-65
2023/03/10 05:59:22;;;;;;;60.80;19.17;;;0.30;99.90;;;;;;5044596;28;20045;-66
2023/03/10 06:01:47;;;;;;;62.13;20.38;;;0.30;99.90;;;;;;5045141;28;20049;-66
2023/03/10 06:04:13;;;;;;;62.50;20.25;;;0.30;99.90;;;;;;5038618;28;20405;-65
2023/03/10 06:06:38;;;;;;;48.83;17.98;;;0.30;99.90;;;;;;5039515;28;20049;-65
2023/03/10 06:09:04;;;;;;;70.18;20.77;;;0.30;99.90;;;;;;5036800;28;20052;-65
2023/03/10 06:11:29;;;;;;;60.03;21.50;;;0.30;99.90;;;;;;5039397;28;20041;-65
2023/03/10 06:13:55;;;;;;;56.50;20.27;;;0.30;99.90;;;;;;5036825;28;20534;-65
2023/03/10 06:16:21;;;;;;;57.38;20.15;;;0.30;99.90;;;;;;5036115;28;20056;-65
2023/03/10 06:18:46;;;;;;;65.78;21.02;;;0.30;99.90;;;;;;5036303;28;20462;-65
2023/03/10 06:21:13;;;;;;;85.43;23.17;;;0.30;99.90;;;;;;5030782;28;20044;-65
2023/03/10 06:23:39;;;;;;;58.85;21.33;;;0.30;99.90;;;;;;5032609;28;20087;-66
2023/03/10 06:26:10;;;;;;;62.92;20.17;;;0.30;99.90;;;;;;5035784;28;20127;-65
2023/03/10 06:28:37;;;;;;;;;;;0.30;99.90;;;;;;5025038;28;20049;-66
2023/03/10 06:31:11;;;;;;;59.15;20.75;;;0.40;99.90;;;;;;5034582;28;19931;-67
2023/03/10 06:33:37;;;;;;;68.38;20.52;;;0.40;99.90;;;;;;5029594;28;20029;-67
2023/03/10 06:36:04;;;;;;;69.03;21.00;;;0.30;99.90;;;;;;5030623;28;20040;-67
2023/03/10 06:38:29;;;;;;;65.03;21.85;;;0.30;99.90;;;;;;5029306;28;20095;-66
2023/03/10 06:40:56;;;;;;;67.35;21.83;;;0.40;99.90;;;;;;5040077;28;20057;-66
2023/03/10 06:43:22;;;;;;;66.15;20.58;;;0.40;99.90;;;;;;5031788;28;20037;-66
2023/03/10 06:45:48;;;;;;;62.83;20.60;;;0.30;99.90;;;;;;5040371;28;20044;-66
2023/03/10 06:48:14;;;;;;;60.42;21.02;;;0.40;99.90;;;;;;5054373;28;20033;-66
2023/03/10 06:50:46;;;;;;;60.35;19.55;;;0.40;99.90;;;;;;5033703;28;20106;-66
2023/03/10 06:53:13;;;;;;;62.45;20.27;;;0.40;99.90;;;;;;5041119;28;20098;-68
2023/03/10 06:55:38;;;;;;;55.83;19.60;;;0.40;99.90;;;;;;5049930;28;20037;-67
2023/03/10 06:58:04;;;;;;;59.50;19.70;;;0.40;99.90;;;;;;5042641;28;20479;-66
2023/03/10 07:00:30;;;;;;;52.55;18.35;;;0.40;99.90;;;;;;5037625;28;20107;-66
2023/03/10 07:02:56;;;;;;;54.53;18.77;;;0.30;99.90;;;;;;5037638;28;20049;-67
2023/03/10 07:05:23;;;;;;;42.75;14.82;;;0.40;99.90;;;;;;5050636;28;20120;-69
2023/03/10 07:07:49;;;;;;;60.85;18.30;;;0.30;99.90;;;;;;5021880;28;20052;-66
2023/03/10 07:10:15;;;;;;;47.80;17.42;;;0.40;99.90;;;;;;5038924;28;20049;-67
2023/03/10 07:12:41;;;;;;;46.40;17.55;;;0.40;99.90;;;;;;5040831;28;20034;-67
2023/03/10 07:15:07;;;;;;;44.85;17.92;;;0.40;99.90;;;;;;5041063;28;20099;-66
2023/03/10 07:17:33;;;;;;;44.72;17.05;;;0.40;99.90;;;;;;5044761;28;20041;-66
2023/03/10 07:19:58;;;;;;;46.13;17.27;;;0.30;99.90;;;;;;5041936;28;20043;-68
2023/03/10 07:22:24;;;;;;;41.17;14.82;;;0.50;99.90;;;;;;5019925;28;20073;-66
2023/03/10 07:24:53;;;;;;;47.67;16.13;;;0.50;99.90;;;;;;5021200;28;20038;-67
2023/03/10 07:27:19;;;;;;;38.15;14.88;;;0.40;99.90;;;;;;5033130;28;20036;-69
2023/03/10 07:29:44;;;;;;;44.63;17.33;;;0.50;99.90;;;;;;5037655;28;20032;-68
2023/03/10 07:32:10;;;;;;;44.80;16.33;;;0.40;99.90;;;;;;5041380;28;20037;-66
2023/03/10 07:34:35;;;;;;;42.53;16.42;;;0.50;99.90;;;;;;5036742;28;20044;-67
2023/03/10 07:37:01;;;;;;;44.50;15.77;;;0.50;99.90;;;;;;5045520;28;20037;-67
2023/03/10 07:39:27;;;;;;;42.35;14.80;;;0.50;99.90;;;;;;5047562;28;20029;-69
2023/03/10 07:41:52;;;;;;;44.13;16.25;;;0.50;99.90;;;;;;5050467;28;20090;-69
2023/03/10 07:44:18;;;;;;;41.72;16.63;;;0.50;99.90;;;;;;5043819;28;20045;-69
2023/03/10 07:46:43;;;;;;;42.40;15.90;;;0.50;99.90;;;;;;5033281;28;20029;-68
2023/03/10 07:49:09;;;;;;;42.28;15.10;;;0.50;99.90;;;;;;5030679;28;20048;-68
2023/03/10 07:51:34;;;;;;;41.65;16.40;;;0.50;99.90;;;;;;5032042;28;20045;-66
2023/03/10 07:54:00;;;;;;;45.28;15.68;;;0.50;99.90;;;;;;5036985;28;20038;-67
2023/03/10 07:56:25;;;;;;;37.65;14.73;;;0.50;99.90;;;;;;5036079;28;20091;-68
2023/03/10 07:58:51;;;;;;;39.40;15.30;;;0.60;99.90;;;;;;5045874;28;20053;-73
2023/03/10 08:01:21;;;;;;;39.00;15.05;;;0.60;99.90;;;;;;5052313;28;20044;-68
2023/03/10 08:03:47;;;;;;;40.55;13.48;;;0.60;99.90;;;;;;5042141;28;20051;-68
2023/03/10 08:06:24;;;;;;;37.47;15.18;;;0.50;99.90;;;;;;5040725;28;20045;-69
2023/03/10 08:08:50;;;;;;;41.42;15.32;;;0.60;99.90;;;;;;5038231;28;20055;-69
2023/03/10 08:11:17;;;;;;;39.50;15.70;;;0.60;99.90;;;;;;5045263;28;20052;-69
2023/03/10 08:13:44;;;;;;;43.97;15.80;;;0.50;99.90;;;;;;5051417;28;20488;-68
2023/03/10 08:16:10;;;;;;;45.10;16.00;;;0.60;99.90;;;;;;5049683;28;20079;-67
2023/03/10 08:18:36;;;;;;;40.03;15.60;;;0.60;99.90;;;;;;5049217;28;20096;-69
2023/03/10 08:21:05;;;;;;;45.47;14.68;;;0.60;99.90;;;;;;5042242;28;20041;-68
2023/03/10 08:23:32;;;;;;;39.22;15.38;;;0.70;99.90;;;;;;5030117;28;20045;-68
2023/03/10 08:26:02;;;;;;;43.63;15.63;;;0.70;99.90;;;;;;5046805;28;20041;-69
2023/03/10 08:28:29;;;;;;;;;;;0.70;99.90;;;;;;5046950;28;20122;-69
2023/03/10 08:30:56;;;;;;;41.28;15.57;;;0.70;99.90;;;;;;5041081;28;20515;-68
2023/03/10 08:33:21;;;;;;;39.97;14.25;;;0.80;99.90;;;;;;5049973;28;20061;-69
2023/03/10 08:35:47;;;;;;;42.83;15.35;;;0.70;99.90;;;;;;5050174;28;20079;-69
2023/03/10 08:38:13;;;;;;;37.88;15.57;;;0.70;99.90;;;;;;5043925;28;20084;-69
2023/03/10 08:40:38;;;;;;;44.78;16.48;;;0.70;99.90;;;;;;5037891;28;20039;-69
2023/03/10 08:43:05;;;;;;;38.60;14.52;;;0.70;99.90;;;;;;5048251;28;20404;-69
2023/03/10 08:45:31;;;;;;;36.50;13.13;;;0.70;99.90;;;;;;5034846;28;20120;-68
2023/03/10 08:47:56;;;;;;;42.63;15.77;;;0.60;99.90;;;;;;5035338;28;20797;-69
2023/03/10 08:50:22;;;;;;;33.90;13.07;;;0.70;99.90;;;;;;5050904;28;20029;-68
2023/03/10 08:52:47;;;;;;;32.15;13.73;;;0.60;99.90;;;;;;5049349;28;20044;-68
2023/03/10 08:55:13;;;;;;;44.10;15.05;;;0.60;99.90;;;;;;5039682;28;20044;-68
2023/03/10 08:57:39;;;;;;;37.90;14.50;;;0.60;99.90;;;;;;5047718;28;20048;-68
2023/03/10 09:00:05;;;;;;;43.38;15.80;;;0.70;99.90;;;;;;5043061;28;20417;-69
2023/03/10 09:02:32;;;;;;;37.38;15.07;;;0.70;99.90;;;;;;5047346;28;20055;-69
2023/03/10 09:04:58;;;;;;;30.65;13.23;;;0.70;99.90;;;;;;5039225;28;20059;-69
2023/03/10 09:07:23;;;;;;;36.58;15.10;;;0.80;99.90;;;;;;5044224;28;20558;-69
2023/03/10 09:09:49;;;;;;;36.63;15.18;;;0.70;99.90;;;;;;5032356;28;20486;-67
2023/03/10 09:12:14;;;;;;;33.90;12.98;;;0.80;99.90;;;;;;5030191;28;20169;-69
2023/03/10 09:14:40;;;;;;;37.95;14.48;;;0.80;99.90;;;;;;5030840;28;20048;-68
2023/03/10 09:17:06;;;;;;;36.03;14.32;;;0.70;99.90;;;;;;5039539;28;20025;-68
2023/03/10 09:19:32;;;;;;;37.88;14.73;;;0.80;99.90;;;;;;5043820;28;20116;-67
2023/03/10 09:21:58;;;;;;;33.03;13.68;;;0.80;99.90;;;;;;5042702;28;20038;-68
2023/03/10 09:24:24;;;;;;;31.45;14.02;;;0.80;99.90;;;;;;5034630;28;20033;-67
2023/03/10 09:26:49;;;;;;;39.90;15.18;;;0.80;99.90;;;;;;5037365;28;20045;-67
2023/03/10 09:29:16;;;;;;;36.50;12.93;;;0.90;99.90;;;;;;5027813;28;20396;-67
2023/03/10 09:31:42;;;;;;;36.67;14.60;;;0.90;99.90;;;;;;5039596;28;20440;-67
2023/03/10 09:34:08;;;;;;;31.15;13.40;;;0.90;99.90;;;;;;5034585;28;20041;-68
2023/03/10 09:36:34;;;;;;;32.20;13.32;;;0.90;99.90;;;;;;5038647;28;20103;-67
2023/03/10 09:39:01;;;;;;;32.65;13.77;;;0.90;99.90;;;;;;5011271;28;20045;-67
2023/03/10 09:41:57;;;;;;;31.65;12.75;;;0.80;99.90;;;;;;5029434;28;20402;-67
2023/03/10 09:44:42;;;;;;;33.80;15.23;;;0.80;99.90;;;;;;5028877;28;20037;-68
2023/03/10 09:47:32;;;;;;;29.15;13.57;;;0.90;99.90;;;;;;5014792;28;20056;-68
2023/03/10 09:50:27;;;;;;;29.10;12.43;;;0.90;99.90;;;;;;5038119;28;20044;-69
2023/03/10 09:53:18;;;;;;;37.38;14.57;;;0.90;99.90;;;;;;5022871;28;20053;-68
2023/03/10 09:55:44;;;;;;;35.33;14.07;;;0.90;99.90;;;;;;5029050;28;20046;-68
2023/03/10 09:58:16;;;;;;;36.60;14.63;;;0.90;99.90;;;;;;5036405;28;20037;-68
2023/03/10 10:00:43;;;;;;;32.80;14.15;;;1.00;99.90;;;;;;5045857;28;20069;-68
2023/03/10 10:03:21;;;;;;;39.13;15.88;;;0.90;99.90;;;;;;5032443;28;20063;-68
2023/03/10 10:05:54;;;;;;;38.88;15.52;;;1.00;99.90;;;;;;5033118;28;20033;-68
2023/03/10 10:08:26;;;;;;;41.10;16.30;;;0.90;99.90;;;;;;5037484;28;20033;-68
2023/03/10 10:10:54;;;;;;;44.38;17.00;;;0.90;99.90;;;;;;5035645;28;22597;-68
2023/03/10 10:13:23;;;;;;;41.53;15.27;;;1.00;99.90;;;;;;5038890;28;20064;-68
2023/03/10 10:16:16;;;;;;;39.88;15.45;;;1.00;99.90;;;;;;5041700;28;20178;-68
2023/03/10 10:18:50;;;;;;;45.63;16.30;;;1.00;99.90;;;;;;5037840;28;20072;-67
2023/03/10 10:21:29;;;;;;;43.30;16.25;;;0.90;99.90;;;;;;5040659;28;20037;-67
2023/03/10 10:23:55;;;;;;;40.08;15.30;;;0.90;99.90;;;;;;5040543;28;20119;-67
2023/03/10 10:26:23;;;;;;;41.97;16.55;;;0.90;99.90;;;;;;5054409;28;20132;-67
2023/03/10 10:28:57;;;;;;;47.30;16.75;;;0.90;99.90;;;;;;5013320;28;20033;-68
2023/03/10 10:31:26;;;;;;;42.88;16.80;;;0.90;99.90;;;;;;5040785;28;20401;-67
2023/03/10 10:34:03;;;;;;;55.53;18.08;;;0.80;99.90;;;;;;5054140;28;20436;-68
2023/03/10 10:36:49;;;;;;;41.00;16.90;;;0.90;99.90;;;;;;5052851;28;20102;-68
2023/03/10 10:39:25;;;;;;;42.03;15.90;;;0.80;99.90;;;;;;5052096;28;20033;-68
2023/03/10 10:41:51;;;;;;;35.40;15.07;;;0.90;99.90;;;;;;5048817;28;20048;-67
2023/03/10 10:44:17;;;;;;;44.55;17.23;;;0.90;99.90;;;;;;5049302;28;20435;-68
2023/03/10 10:46:55;;;;;;;39.05;16.77;;;0.90;99.90;;;;;;5051787;28;20052;-68
2023/03/10 10:49:26;;;;;;;36.95;16.27;;;0.90;99.90;;;;;;5048601;28;20527;-68
2023/03/10 10:51:57;;;;;;;39.97;15.27;;;1.00;99.90;;;;;;5033927;28;20090;-68
2023/03/10 10:54:42;;;;;;;42.03;16.48;;;1.00;99.90;;;;;;5051308;28;20045;-69
2023/03/10 10:57:20;;;;;;;37.80;15.70;;;1.00;99.90;;;;;;5050975;28;20029;-69
2023/03/10 10:59:46;;;;;;;40.22;17.38;;;1.00;99.90;;;;;;5047331;28;20408;-69
2023/03/10 11:02:29;;;;;;;47.97;18.35;;;1.00;99.90;;;;;;5048529;28;20056;-68
2023/03/10 11:05:16;;;;;;;39.35;16.02;;;1.00;99.90;;;;;;5051506;28;20076;-69
2023/03/10 11:07:42;;;;;;;42.10;16.92;;;1.10;99.90;;;;;;5048397;28;20400;-69
2023/03/10 11:10:17;;;;;;;41.28;17.42;;;1.10;99.90;;;;;;5051812;28;20080;-69
2023/03/10 11:13:01;;;;;;;41.78;16.88;;;1.10;99.90;;;;;;5048663;28;20125;-69
2023/03/10 11:15:36;;;;;;;41.50;16.45;;;1.10;99.90;;;;;;5028173;28;20033;-69
2023/03/10 11:18:23;;;;;;;39.17;17.15;;;1.10;99.90;;;;;;5039913;28;20045;-70
2023/03/10 11:21:02;;;;;;;39.63;15.75;;;1.10;99.90;;;;;;5049654;28;20120;-70
2023/03/10 11:23:49;;;;;;;37.38;16.02;;;1.10;99.90;;;;;;5034030;28;20476;-71
2023/03/10 11:26:31;;;;;;;40.17;16.00;;;1.10;99.90;;;;;;5043380;28;20392;-71
2023/03/10 11:29:20;;;;;;;37.88;16.42;;;1.10;99.90;;;;;;5042072;28;20032;-71
2023/03/10 11:32:04;;;;;;;35.50;15.35;;;1.10;99.90;;;;;;5043382;28;20233;-72
2023/03/10 11:34:34;;;;;;;38.40;15.73;;;1.10;99.90;;;;;;5015179;28;20438;-72
2023/03/10 11:37:07;;;;;;;;;;;1.10;99.90;;;;;;5030474;28;20033;-71
2023/03/10 11:40:06;;;;;;;36.90;14.95;;;1.10;99.90;;;;;;5035753;28;19917;-71
2023/03/10 11:42:46;;;;;;;44.95;16.05;;;1.10;99.90;;;;;;5038185;28;20049;-72
2023/03/10 11:45:36;;;;;;;39.83;15.48;;;1.10;99.90;;;;;;5019242;28;20091;-71
2023/03/10 11:48:30;;;;;;;44.27;17.17;;;1.10;99.90;;;;;;5032631;28;20056;-71
2023/03/10 11:50:58;;;;;;;37.33;15.52;;;1.10;99.90;;;;;;5040936;28;20298;-71
2023/03/10 11:53:36;;;;;;;38.10;15.00;;;1.10;99.90;;;;;;5047122;28;20041;-71
2023/03/10 11:56:04;;;;;;;37.03;14.80;;;1.10;99.90;;;;;;5028697;28;20091;-71
2023/03/10 11:58:42;;;;;;;35.53;14.93;;;1.10;99.90;;;;;;5040276;28;20778;-72
2023/03/10 12:01:10;;;;;;;35.38;14.55;;;1.10;99.90;;;;;;5037108;28;20462;-71
2023/03/10 12:03:47;;;;;;;36.88;15.25;;;1.00;99.90;;;;;;5045646;28;20033;-70
2023/03/10 12:06:19;;;;;;;34.35;14.93;;;0.90;99.90;;;;;;5040070;28;20386;-70
2023/03/10 12:08:48;;;;;;;33.70;13.85;;;0.80;99.90;;;;;;5046475;28;20045;-68
2023/03/10 12:11:20;;;;;;;30.43;13.50;;;0.90;99.90;;;;;;5051196;28;20052;-68
2023/03/10 12:13:50;;;;;;;31.52;13.75;;;0.80;99.90;;;;;;5034332;28;20311;-69
2023/03/10 12:16:20;;;;;;;35.95;14.27;;;0.90;99.90;;;;;;5037460;28;20037;-68
2023/03/10 12:18:46;;;;;;;36.80;15.93;;;0.90;99.90;;;;;;5039880;28;20084;-68
2023/03/10 12:21:14;;;;;;;36.47;14.57;;;0.90;99.90;;;;;;5045356;28;20460;-68
2023/03/10 12:23:49;;;;;;;35.90;14.77;;;0.90;99.90;;;;;;5041669;28;20055;-68
2023/03/10 12:26:37;;;;;;;36.53;15.45;;;0.90;99.90;;;;;;5043286;28;20045;-68
2023/03/10 12:29:52;;;;;;;38.22;15.13;;;0.90;99.90;;;;;;5027314;28;20064;-68
2023/03/10 12:32:43;;;;;;;36.00;15.15;;;0.80;99.90;;;;;;5016248;28;20045;-68
2023/03/10 12:35:26;;;;;;;38.08;16.27;;;0.90;99.90;;;;;;5033513;28;20166;-68
2023/03/10 12:38:26;;;;;;;42.85;16.80;;;0.80;99.90;;;;;;5046153;28;20037;-68
2023/03/10 12:40:52;;;;;;;31.02;13.85;;;0.80;99.90;;;;;;5036754;28;20439;-68
2023/03/10 12:43:42;;;;;;;36.70;14.73;;;0.80;99.90;;;;;;5024601;28;20057;-69
2023/03/10 12:46:11;;;;;;;35.88;15.65;;;0.80;99.90;;;;;;5005521;28;20063;-68
2023/03/10 12:48:43;;;;;;;38.65;15.63;;;0.80;99.90;;;;;;5011038;28;20056;-69
2023/03/10 12:51:21;;;;;;;40.42;16.58;;;0.80;99.90;;;;;;5042811;28;20051;-69